CheckWX is a tool to help pilots better visualize weather data.  It is not intended as a substitute for an official pre-flight weather briefing.

04:06:52 UTC

KSMN TAF
Lemhi County Airport
Salmon, Idaho, USA
KSMN 232334Z 2400/2424 33006KT P6SM BKN060 FM241900 31010KT P6SM SKC

Apr-24@
00:00 UTC

Apr-24 @ 00:00 UTC

Apr-24@
19:00 UTC

Apr-24 @ 19:00 UTC

KSMN 232334Z 2400/2424 33006KT P6SM BKN060
Wind
  • 330° at 6 KTS
Cloud Levels
  • Broken at 6,000' AGL

Apr-24@
19:00 UTC

Apr-24 @ 19:00 UTC

Apr-25@
00:00 UTC

Apr-25 @ 00:00 UTC

FM241900 31010KT P6SM SKC

From

From Standard forecast or significant change

Wind
  • 310° at 10 KTS
Cloud Levels
  • Clear skies